sensor_id;sensor_type;location;lat;lon;timestamp;temperature;humidity
67279;DHT22;54193;53.746;10.058;2022-12-08T00:00:34;0.58;95.40
67279;DHT22;54193;53.746;10.058;2022-12-08T00:03:20;0.60;95.46
67279;DHT22;54193;53.746;10.058;2022-12-08T00:06:11;0.65;95.52
67279;DHT22;54193;53.746;10.058;2022-12-08T00:09:27;0.62;95.49
67279;DHT22;54193;53.746;10.058;2022-12-08T00:12:13;0.60;95.54
67279;DHT22;54193;53.746;10.058;2022-12-08T00:15:02;0.59;95.53
67279;DHT22;54193;53.746;10.058;2022-12-08T00:17:47;0.60;95.63
67279;DHT22;54193;53.746;10.058;2022-12-08T00:20:33;0.65;95.60
67279;DHT22;54193;53.746;10.058;2022-12-08T00:23:18;0.69;95.62
67279;DHT22;54193;53.746;10.058;2022-12-08T00:26:05;0.66;95.66
67279;DHT22;54193;53.746;10.058;2022-12-08T00:28:51;0.65;95.60
67279;DHT22;54193;53.746;10.058;2022-12-08T00:31:36;0.59;95.70
67279;DHT22;54193;53.746;10.058;2022-12-08T00:34:22;0.69;95.69
67279;DHT22;54193;53.746;10.058;2022-12-08T00:37:07;0.69;95.66
67279;DHT22;54193;53.746;10.058;2022-12-08T00:39:53;0.69;95.68
67279;DHT22;54193;53.746;10.058;2022-12-08T00:42:39;0.70;95.64
67279;DHT22;54193;53.746;10.058;2022-12-08T00:45:24;0.68;95.62
67279;DHT22;54193;53.746;10.058;2022-12-08T00:48:10;0.70;95.65
67279;DHT22;54193;53.746;10.058;2022-12-08T00:50:55;0.70;95.76
67279;DHT22;54193;53.746;10.058;2022-12-08T00:53:41;0.72;95.70
67279;DHT22;54193;53.746;10.058;2022-12-08T00:56:27;0.75;95.67
67279;DHT22;54193;53.746;10.058;2022-12-08T00:59:12;0.76;95.70
67279;DHT22;54193;53.746;10.058;2022-12-08T01:01:58;0.75;95.72
67279;DHT22;54193;53.746;10.058;2022-12-08T01:04:44;0.70;95.72
67279;DHT22;54193;53.746;10.058;2022-12-08T01:07:30;0.72;95.68
67279;DHT22;54193;53.746;10.058;2022-12-08T01:10:16;0.72;95.75
67279;DHT22;54193;53.746;10.058;2022-12-08T01:13:02;0.65;95.75
67279;DHT22;54193;53.746;10.058;2022-12-08T01:15:48;0.66;95.73
67279;DHT22;54193;53.746;10.058;2022-12-08T01:18:34;0.63;95.71
67279;DHT22;54193;53.746;10.058;2022-12-08T01:21:20;0.69;95.77
67279;DHT22;54193;53.746;10.058;2022-12-08T01:24:08;0.66;95.79
67279;DHT22;54193;53.746;10.058;2022-12-08T01:26:54;0.65;95.75
67279;DHT22;54193;53.746;10.058;2022-12-08T01:29:40;0.58;95.77
67279;DHT22;54193;53.746;10.058;2022-12-08T01:32:25;0.52;95.89
67279;DHT22;54193;53.746;10.058;2022-12-08T01:35:11;0.48;95.95
67279;DHT22;54193;53.746;10.058;2022-12-08T01:37:58;0.46;96.06
67279;DHT22;54193;53.746;10.058;2022-12-08T01:40:43;0.45;95.89
67279;DHT22;54193;53.746;10.058;2022-12-08T01:46:53;0.44;95.87
67279;DHT22;54193;53.746;10.058;2022-12-08T01:49:39;0.45;95.85
67279;DHT22;54193;53.746;10.058;2022-12-08T01:52:30;0.45;95.92
67279;DHT22;54193;53.746;10.058;2022-12-08T01:58:35;0.50;95.72
67279;DHT22;54193;53.746;10.058;2022-12-08T02:01:20;0.49;95.76
67279;DHT22;54193;53.746;10.058;2022-12-08T02:04:06;0.49;95.75
67279;DHT22;54193;53.746;10.058;2022-12-08T02:06:52;0.52;95.74
67279;DHT22;54193;53.746;10.058;2022-12-08T02:09:39;0.46;95.75
67279;DHT22;54193;53.746;10.058;2022-12-08T02:12:26;0.44;95.80
67279;DHT22;54193;53.746;10.058;2022-12-08T02:15:12;0.49;95.89
67279;DHT22;54193;53.746;10.058;2022-12-08T02:18:23;0.48;96.05
67279;DHT22;54193;53.746;10.058;2022-12-08T02:24:46;0.49;96.13
67279;DHT22;54193;53.746;10.058;2022-12-08T02:27:58;0.52;96.16
67279;DHT22;54193;53.746;10.058;2022-12-08T02:31:00;0.59;96.12
67279;DHT22;54193;53.746;10.058;2022-12-08T02:37:09;0.62;96.05
67279;DHT22;54193;53.746;10.058;2022-12-08T02:40:02;0.65;96.01
67279;DHT22;54193;53.746;10.058;2022-12-08T02:45:49;0.65;96.07
67279;DHT22;54193;53.746;10.058;2022-12-08T02:48:36;0.53;96.12
67279;DHT22;54193;53.746;10.058;2022-12-08T02:51:22;0.56;96.24
67279;DHT22;54193;53.746;10.058;2022-12-08T02:54:08;0.62;96.18
67279;DHT22;54193;53.746;10.058;2022-12-08T03:03:14;0.68;96.29
67279;DHT22;54193;53.746;10.058;2022-12-08T03:06:17;0.75;96.26
67279;DHT22;54193;53.746;10.058;2022-12-08T03:15:12;0.81;96.22
67279;DHT22;54193;53.746;10.058;2022-12-08T03:17:58;0.80;96.23
67279;DHT22;54193;53.746;10.058;2022-12-08T03:20:46;0.80;96.20
67279;DHT22;54193;53.746;10.058;2022-12-08T03:23:35;0.80;96.23
67279;DHT22;54193;53.746;10.058;2022-12-08T03:26:39;0.84;96.23
67279;DHT22;54193;53.746;10.058;2022-12-08T03:29:28;0.87;96.26
67279;DHT22;54193;53.746;10.058;2022-12-08T03:35:13;0.96;96.29
67279;DHT22;54193;53.746;10.058;2022-12-08T03:38:06;0.93;96.29
67279;DHT22;54193;53.746;10.058;2022-12-08T03:40:52;0.97;96.30
67279;DHT22;54193;53.746;10.058;2022-12-08T03:43:57;0.97;96.22
67279;DHT22;54193;53.746;10.058;2022-12-08T03:46:43;0.98;96.25
67279;DHT22;54193;53.746;10.058;2022-12-08T03:49:30;1.03;96.31
67279;DHT22;54193;53.746;10.058;2022-12-08T03:52:15;1.03;96.32
67279;DHT22;54193;53.746;10.058;2022-12-08T03:55:02;1.01;96.32
67279;DHT22;54193;53.746;10.058;2022-12-08T03:57:47;1.04;96.25
67279;DHT22;54193;53.746;10.058;2022-12-08T04:00:33;1.08;96.28
67279;DHT22;54193;53.746;10.058;2022-12-08T04:03:18;1.08;96.23
67279;DHT22;54193;53.746;10.058;2022-12-08T04:06:05;1.08;96.16
67279;DHT22;54193;53.746;10.058;2022-12-08T04:08:51;1.07;96.19
67279;DHT22;54193;53.746;10.058;2022-12-08T04:11:37;1.08;96.06
67279;DHT22;54193;53.746;10.058;2022-12-08T04:14:22;1.08;96.09
67279;DHT22;54193;53.746;10.058;2022-12-08T04:17:08;1.13;96.05
67279;DHT22;54193;53.746;10.058;2022-12-08T04:19:53;1.09;96.09
67279;DHT22;54193;53.746;10.058;2022-12-08T04:22:39;1.13;96.03
67279;DHT22;54193;53.746;10.058;2022-12-08T04:25:24;1.13;96.02
67279;DHT22;54193;53.746;10.058;2022-12-08T04:28:10;1.13;96.05
67279;DHT22;54193;53.746;10.058;2022-12-08T04:30:57;1.09;96.00
67279;DHT22;54193;53.746;10.058;2022-12-08T04:33:43;1.14;96.08
67279;DHT22;54193;53.746;10.058;2022-12-08T04:36:29;1.13;95.98
67279;DHT22;54193;53.746;10.058;2022-12-08T04:39:15;1.14;96.05
67279;DHT22;54193;53.746;10.058;2022-12-08T04:42:00;1.14;95.88
67279;DHT22;54193;53.746;10.058;2022-12-08T04:44:46;1.17;95.98
67279;DHT22;54193;53.746;10.058;2022-12-08T04:47:32;1.15;96.00
67279;DHT22;54193;53.746;10.058;2022-12-08T04:50:17;1.17;96.01
67279;DHT22;54193;53.746;10.058;2022-12-08T04:53:03;1.18;96.04
67279;DHT22;54193;53.746;10.058;2022-12-08T04:55:48;1.23;96.02
67279;DHT22;54193;53.746;10.058;2022-12-08T04:58:34;1.18;96.01
67279;DHT22;54193;53.746;10.058;2022-12-08T05:01:20;1.20;95.96
67279;DHT22;54193;53.746;10.058;2022-12-08T05:04:05;1.18;95.89
67279;DHT22;54193;53.746;10.058;2022-12-08T05:06:51;1.15;95.84
67279;DHT22;54193;53.746;10.058;2022-12-08T05:09:37;1.14;95.94
67279;DHT22;54193;53.746;10.058;2022-12-08T05:12:22;1.20;95.99
67279;DHT22;54193;53.746;10.058;2022-12-08T05:15:08;1.24;95.83
67279;DHT22;54193;53.746;10.058;2022-12-08T05:17:54;1.23;95.84
67279;DHT22;54193;53.746;10.058;2022-12-08T05:20:39;1.24;95.85
67279;DHT22;54193;53.746;10.058;2022-12-08T05:23:25;1.24;95.80
67279;DHT22;54193;53.746;10.058;2022-12-08T05:26:11;1.25;95.86
67279;DHT22;54193;53.746;10.058;2022-12-08T05:28:56;1.20;95.79
67279;DHT22;54193;53.746;10.058;2022-12-08T05:31:42;1.18;95.70
67279;DHT22;54193;53.746;10.058;2022-12-08T05:34:28;1.20;95.79
67279;DHT22;54193;53.746;10.058;2022-12-08T05:37:13;1.13;95.77
67279;DHT22;54193;53.746;10.058;2022-12-08T05:39:59;1.18;95.79
67279;DHT22;54193;53.746;10.058;2022-12-08T05:42:45;1.18;95.70
67279;DHT22;54193;53.746;10.058;2022-12-08T05:45:30;1.18;95.64
67279;DHT22;54193;53.746;10.058;2022-12-08T05:48:16;1.15;95.64
67279;DHT22;54193;53.746;10.058;2022-12-08T05:51:02;1.14;95.68
67279;DHT22;54193;53.746;10.058;2022-12-08T05:53:50;1.09;95.71
67279;DHT22;54193;53.746;10.058;2022-12-08T05:56:36;1.13;95.76
67279;DHT22;54193;53.746;10.058;2022-12-08T05:59:21;1.18;95.78
67279;DHT22;54193;53.746;10.058;2022-12-08T06:02:07;1.07;95.70
67279;DHT22;54193;53.746;10.058;2022-12-08T06:04:53;0.98;95.70
67279;DHT22;54193;53.746;10.058;2022-12-08T06:07:38;0.96;95.83
67279;DHT22;54193;53.746;10.058;2022-12-08T06:10:24;1.00;95.94
67279;DHT22;54193;53.746;10.058;2022-12-08T06:13:10;1.04;95.93
67279;DHT22;54193;53.746;10.058;2022-12-08T06:16:02;1.14;95.84
67279;DHT22;54193;53.746;10.058;2022-12-08T06:18:48;1.15;95.80
67279;DHT22;54193;53.746;10.058;2022-12-08T06:21:34;1.14;95.69
67279;DHT22;54193;53.746;10.058;2022-12-08T06:24:20;1.15;95.69
67279;DHT22;54193;53.746;10.058;2022-12-08T06:27:05;1.08;95.59
67279;DHT22;54193;53.746;10.058;2022-12-08T06:29:51;1.13;95.75
67279;DHT22;54193;53.746;10.058;2022-12-08T06:32:36;1.11;95.73
67279;DHT22;54193;53.746;10.058;2022-12-08T06:35:22;1.17;95.79
67279;DHT22;54193;53.746;10.058;2022-12-08T06:38:08;1.13;95.70
67279;DHT22;54193;53.746;10.058;2022-12-08T06:40:54;1.20;95.68
67279;DHT22;54193;53.746;10.058;2022-12-08T06:43:41;1.14;95.54
67279;DHT22;54193;53.746;10.058;2022-12-08T06:46:26;1.17;95.62
67279;DHT22;54193;53.746;10.058;2022-12-08T06:49:12;1.20;95.66
67279;DHT22;54193;53.746;10.058;2022-12-08T06:51:57;1.15;95.57
67279;DHT22;54193;53.746;10.058;2022-12-08T06:54:43;1.20;95.67
67279;DHT22;54193;53.746;10.058;2022-12-08T06:57:29;1.20;95.60
67279;DHT22;54193;53.746;10.058;2022-12-08T07:00:15;1.24;95.67
67279;DHT22;54193;53.746;10.058;2022-12-08T07:03:01;1.27;95.64
67279;DHT22;54193;53.746;10.058;2022-12-08T07:05:47;1.21;95.64
67279;DHT22;54193;53.746;10.058;2022-12-08T07:08:33;1.21;95.56
67279;DHT22;54193;53.746;10.058;2022-12-08T07:11:19;1.21;95.63
67279;DHT22;54193;53.746;10.058;2022-12-08T07:14:04;1.24;95.60
67279;DHT22;54193;53.746;10.058;2022-12-08T07:16:50;1.27;95.53
67279;DHT22;54193;53.746;10.058;2022-12-08T07:19:36;1.25;95.60
67279;DHT22;54193;53.746;10.058;2022-12-08T07:22:22;1.23;95.49
67279;DHT22;54193;53.746;10.058;2022-12-08T07:25:07;1.25;95.63
67279;DHT22;54193;53.746;10.058;2022-12-08T07:27:53;1.23;95.66
67279;DHT22;54193;53.746;10.058;2022-12-08T07:30:39;1.27;95.60
67279;DHT22;54193;53.746;10.058;2022-12-08T07:33:25;1.28;95.59
67279;DHT22;54193;53.746;10.058;2022-12-08T07:36:10;1.24;95.67
67279;DHT22;54193;53.746;10.058;2022-12-08T07:38:56;1.24;95.52
67279;DHT22;54193;53.746;10.058;2022-12-08T07:41:42;1.28;95.58
67279;DHT22;54193;53.746;10.058;2022-12-08T07:44:27;1.24;95.52
67279;DHT22;54193;53.746;10.058;2022-12-08T07:47:13;1.21;95.62
67279;DHT22;54193;53.746;10.058;2022-12-08T07:49:59;1.28;95.52
67279;DHT22;54193;53.746;10.058;2022-12-08T07:52:44;1.20;95.51
67279;DHT22;54193;53.746;10.058;2022-12-08T07:55:30;1.21;95.49
67279;DHT22;54193;53.746;10.058;2022-12-08T07:58:15;1.23;95.56
67279;DHT22;54193;53.746;10.058;2022-12-08T08:01:01;1.24;95.52
67279;DHT22;54193;53.746;10.058;2022-12-08T08:03:47;1.23;95.53
67279;DHT22;54193;53.746;10.058;2022-12-08T08:06:34;1.24;95.45
67279;DHT22;54193;53.746;10.058;2022-12-08T08:09:21;1.23;95.43
67279;DHT22;54193;53.746;10.058;2022-12-08T08:12:08;1.24;95.47
67279;DHT22;54193;53.746;10.058;2022-12-08T08:14:54;1.24;95.49
67279;DHT22;54193;53.746;10.058;2022-12-08T08:17:39;1.23;95.53
67279;DHT22;54193;53.746;10.058;2022-12-08T08:20:25;1.23;95.47
67279;DHT22;54193;53.746;10.058;2022-12-08T08:23:11;1.25;95.47
67279;DHT22;54193;53.746;10.058;2022-12-08T08:26:01;1.21;95.48
67279;DHT22;54193;53.746;10.058;2022-12-08T08:28:46;1.23;95.49
67279;DHT22;54193;53.746;10.058;2022-12-08T08:31:32;1.23;95.50
67279;DHT22;54193;53.746;10.058;2022-12-08T08:34:18;1.25;95.45
67279;DHT22;54193;53.746;10.058;2022-12-08T08:37:03;1.20;95.41
67279;DHT22;54193;53.746;10.058;2022-12-08T08:39:49;1.14;95.40
67279;DHT22;54193;53.746;10.058;2022-12-08T08:42:35;1.14;95.41
67279;DHT22;54193;53.746;10.058;2022-12-08T08:45:21;1.09;95.43
67279;DHT22;54193;53.746;10.058;2022-12-08T08:48:06;1.03;95.52
67279;DHT22;54193;53.746;10.058;2022-12-08T08:50:52;1.01;95.35
67279;DHT22;54193;53.746;10.058;2022-12-08T08:53:39;1.08;95.48
67279;DHT22;54193;53.746;10.058;2022-12-08T08:56:25;1.11;95.28
67279;DHT22;54193;53.746;10.058;2022-12-08T08:59:11;1.03;95.35
67279;DHT22;54193;53.746;10.058;2022-12-08T09:01:56;1.03;95.40
67279;DHT22;54193;53.746;10.058;2022-12-08T09:04:43;0.81;95.48
67279;DHT22;54193;53.746;10.058;2022-12-08T09:07:29;0.62;95.50
67279;DHT22;54193;53.746;10.058;2022-12-08T09:10:15;0.60;95.69
67279;DHT22;54193;53.746;10.058;2022-12-08T09:13:00;0.62;95.75
67279;DHT22;54193;53.746;10.058;2022-12-08T09:15:46;0.65;95.60
67279;DHT22;54193;53.746;10.058;2022-12-08T09:18:31;0.77;95.41
67279;DHT22;54193;53.746;10.058;2022-12-08T09:21:19;0.79;95.39
67279;DHT22;54193;53.746;10.058;2022-12-08T09:24:06;0.80;95.49
67279;DHT22;54193;53.746;10.058;2022-12-08T09:26:59;0.75;95.61
67279;DHT22;54193;53.746;10.058;2022-12-08T09:29:45;0.73;95.56
67279;DHT22;54193;53.746;10.058;2022-12-08T09:32:31;0.86;95.59
67279;DHT22;54193;53.746;10.058;2022-12-08T09:35:16;0.86;95.61
67279;DHT22;54193;53.746;10.058;2022-12-08T09:38:02;0.84;95.71
67279;DHT22;54193;53.746;10.058;2022-12-08T09:40:50;0.93;95.69
67279;DHT22;54193;53.746;10.058;2022-12-08T09:46:39;1.08;95.40
67279;DHT22;54193;53.746;10.058;2022-12-08T09:49:45;0.97;95.35
67279;DHT22;54193;53.746;10.058;2022-12-08T09:52:38;1.05;95.52
67279;DHT22;54193;53.746;10.058;2022-12-08T09:55:52;1.24;95.44
67279;DHT22;54193;53.746;10.058;2022-12-08T09:58:52;1.30;95.28
67279;DHT22;54193;53.746;10.058;2022-12-08T10:01:39;1.27;94.98
67279;DHT22;54193;53.746;10.058;2022-12-08T10:04:30;1.30;95.08
67279;DHT22;54193;53.746;10.058;2022-12-08T10:10:22;1.17;94.89
67279;DHT22;54193;53.746;10.058;2022-12-08T10:16:40;1.20;95.02
67279;DHT22;54193;53.746;10.058;2022-12-08T10:19:27;1.17;95.00
67279;DHT22;54193;53.746;10.058;2022-12-08T10:22:24;1.30;95.06
67279;DHT22;54193;53.746;10.058;2022-12-08T10:25:20;1.31;94.98
67279;DHT22;54193;53.746;10.058;2022-12-08T10:28:07;1.32;95.05
67279;DHT22;54193;53.746;10.058;2022-12-08T10:30:54;1.21;94.98
67279;DHT22;54193;53.746;10.058;2022-12-08T10:33:39;1.20;95.10
67279;DHT22;54193;53.746;10.058;2022-12-08T10:42:20;1.27;94.97
67279;DHT22;54193;53.746;10.058;2022-12-08T10:45:23;1.32;95.03
67279;DHT22;54193;53.746;10.058;2022-12-08T10:48:16;1.46;95.08
67279;DHT22;54193;53.746;10.058;2022-12-08T10:51:02;1.48;94.75
67279;DHT22;54193;53.746;10.058;2022-12-08T10:53:50;1.51;94.74
67279;DHT22;54193;53.746;10.058;2022-12-08T10:56:35;1.60;94.69
67279;DHT22;54193;53.746;10.058;2022-12-08T10:59:21;1.64;94.59
67279;DHT22;54193;53.746;10.058;2022-12-08T11:02:19;1.63;94.50
67279;DHT22;54193;53.746;10.058;2022-12-08T11:05:05;1.60;94.57
67279;DHT22;54193;53.746;10.058;2022-12-08T11:07:53;1.67;94.68
67279;DHT22;54193;53.746;10.058;2022-12-08T11:10:43;1.67;94.61
67279;DHT22;54193;53.746;10.058;2022-12-08T11:13:29;1.59;94.53
67279;DHT22;54193;53.746;10.058;2022-12-08T11:16:16;1.52;94.66
67279;DHT22;54193;53.746;10.058;2022-12-08T11:19:04;1.43;94.61
67279;DHT22;54193;53.746;10.058;2022-12-08T11:21:52;1.49;94.55
67279;DHT22;54193;53.746;10.058;2022-12-08T11:24:38;1.45;94.54
67279;DHT22;54193;53.746;10.058;2022-12-08T11:27:23;1.43;94.63
67279;DHT22;54193;53.746;10.058;2022-12-08T11:30:19;1.38;94.50
67279;DHT22;54193;53.746;10.058;2022-12-08T11:33:15;1.42;94.60
67279;DHT22;54193;53.746;10.058;2022-12-08T11:36:04;1.51;94.60
67279;DHT22;54193;53.746;10.058;2022-12-08T11:38:55;1.45;94.77
67279;DHT22;54193;53.746;10.058;2022-12-08T11:41:43;1.53;94.74
67279;DHT22;54193;53.746;10.058;2022-12-08T11:44:53;1.62;94.77
67279;DHT22;54193;53.746;10.058;2022-12-08T11:47:45;1.69;94.72
67279;DHT22;54193;53.746;10.058;2022-12-08T11:50:46;1.60;94.75
67279;DHT22;54193;53.746;10.058;2022-12-08T11:57:00;1.45;94.78
67279;DHT22;54193;53.746;10.058;2022-12-08T11:59:49;1.46;94.70
67279;DHT22;54193;53.746;10.058;2022-12-08T12:02:39;1.52;94.84
67279;DHT22;54193;53.746;10.058;2022-12-08T12:09:12;1.64;94.78
67279;DHT22;54193;53.746;10.058;2022-12-08T12:15:35;1.58;94.75
67279;DHT22;54193;53.746;10.058;2022-12-08T12:18:44;1.53;94.82
67279;DHT22;54193;53.746;10.058;2022-12-08T12:21:44;1.60;94.84
67279;DHT22;54193;53.746;10.058;2022-12-08T12:24:32;1.62;94.81
67279;DHT22;54193;53.746;10.058;2022-12-08T12:27:42;1.69;94.83
67279;DHT22;54193;53.746;10.058;2022-12-08T12:30:47;1.76;94.74
67279;DHT22;54193;53.746;10.058;2022-12-08T12:33:35;1.73;94.73
67279;DHT22;54193;53.746;10.058;2022-12-08T12:36:21;1.73;94.70
67279;DHT22;54193;53.746;10.058;2022-12-08T12:39:09;1.74;94.73
67279;DHT22;54193;53.746;10.058;2022-12-08T12:41:59;1.70;94.75
67279;DHT22;54193;53.746;10.058;2022-12-08T12:44:44;1.74;94.72
67279;DHT22;54193;53.746;10.058;2022-12-08T12:47:49;1.74;94.74
67279;DHT22;54193;53.746;10.058;2022-12-08T12:50:42;1.77;94.76
67279;DHT22;54193;53.746;10.058;2022-12-08T13:05:29;1.97;94.61
67279;DHT22;54193;53.746;10.058;2022-12-08T13:08:25;2.00;94.35
67279;DHT22;54193;53.746;10.058;2022-12-08T13:11:11;1.96;94.32
67279;DHT22;54193;53.746;10.058;2022-12-08T13:14:02;1.87;94.20
67279;DHT22;54193;53.746;10.058;2022-12-08T13:16:52;1.79;94.23
67279;DHT22;54193;53.746;10.058;2022-12-08T13:19:39;1.76;94.23
67279;DHT22;54193;53.746;10.058;2022-12-08T13:22:45;1.55;94.44
67279;DHT22;54193;53.746;10.058;2022-12-08T13:28:27;1.41;94.53
67279;DHT22;54193;53.746;10.058;2022-12-08T13:37:45;1.35;94.98
67279;DHT22;54193;53.746;10.058;2022-12-08T13:40:32;1.38;94.94
67279;DHT22;54193;53.746;10.058;2022-12-08T13:43:37;1.35;95.06
67279;DHT22;54193;53.746;10.058;2022-12-08T13:46:35;1.28;95.04
67279;DHT22;54193;53.746;10.058;2022-12-08T13:49:26;1.27;95.10
67279;DHT22;54193;53.746;10.058;2022-12-08T13:52:30;1.18;95.34
67279;DHT22;54193;53.746;10.058;2022-12-08T13:55:21;1.20;95.36
67279;DHT22;54193;53.746;10.058;2022-12-08T13:58:17;1.20;95.27
67279;DHT22;54193;53.746;10.058;2022-12-08T14:01:20;1.32;95.25
67279;DHT22;54193;53.746;10.058;2022-12-08T14:04:14;1.43;95.26
67279;DHT22;54193;53.746;10.058;2022-12-08T14:07:01;1.39;95.14
67279;DHT22;54193;53.746;10.058;2022-12-08T14:09:47;1.23;95.16
67279;DHT22;54193;53.746;10.058;2022-12-08T14:12:33;1.00;95.37
67279;DHT22;54193;53.746;10.058;2022-12-08T14:15:19;0.80;95.76
67279;DHT22;54193;53.746;10.058;2022-12-08T14:18:21;0.69;95.33
67279;DHT22;54193;53.746;10.058;2022-12-08T14:21:11;0.66;95.03
67279;DHT22;54193;53.746;10.058;2022-12-08T14:24:00;0.65;94.86
67279;DHT22;54193;53.746;10.058;2022-12-08T14:26:50;0.55;94.75
67279;DHT22;54193;53.746;10.058;2022-12-08T14:29:54;0.52;94.77
67279;DHT22;54193;53.746;10.058;2022-12-08T14:32:55;0.62;94.90
67279;DHT22;54193;53.746;10.058;2022-12-08T14:35:41;0.52;95.00
67279;DHT22;54193;53.746;10.058;2022-12-08T14:38:26;0.52;95.15
67279;DHT22;54193;53.746;10.058;2022-12-08T14:41:12;0.58;95.23
67279;DHT22;54193;53.746;10.058;2022-12-08T14:44:00;0.59;96.00
67279;DHT22;54193;53.746;10.058;2022-12-08T14:47:08;0.69;96.04
67279;DHT22;54193;53.746;10.058;2022-12-08T14:49:54;0.90;96.02
67279;DHT22;54193;53.746;10.058;2022-12-08T14:52:42;0.91;96.01
67279;DHT22;54193;53.746;10.058;2022-12-08T14:55:36;0.84;96.15
67279;DHT22;54193;53.746;10.058;2022-12-08T14:58:27;0.83;96.28
67279;DHT22;54193;53.746;10.058;2022-12-08T15:01:17;0.86;96.22
67279;DHT22;54193;53.746;10.058;2022-12-08T15:07:11;1.05;96.06
67279;DHT22;54193;53.746;10.058;2022-12-08T15:13:20;1.05;96.16
67279;DHT22;54193;53.746;10.058;2022-12-08T15:16:28;0.93;96.37
67279;DHT22;54193;53.746;10.058;2022-12-08T15:19:17;0.97;96.23
67279;DHT22;54193;53.746;10.058;2022-12-08T15:22:17;0.90;96.37
67279;DHT22;54193;53.746;10.058;2022-12-08T15:25:10;0.84;96.49
67279;DHT22;54193;53.746;10.058;2022-12-08T15:27:58;0.94;96.46
67279;DHT22;54193;53.746;10.058;2022-12-08T15:30:44;1.01;96.37
67279;DHT22;54193;53.746;10.058;2022-12-08T15:33:29;1.01;96.15
67279;DHT22;54193;53.746;10.058;2022-12-08T15:36:15;1.00;96.14
67279;DHT22;54193;53.746;10.058;2022-12-08T15:39:00;1.05;96.15
67279;DHT22;54193;53.746;10.058;2022-12-08T15:41:46;1.03;96.03
67279;DHT22;54193;53.746;10.058;2022-12-08T15:44:32;0.98;96.01
67279;DHT22;54193;53.746;10.058;2022-12-08T15:47:19;1.00;95.90
67279;DHT22;54193;53.746;10.058;2022-12-08T15:50:05;0.93;95.92
67279;DHT22;54193;53.746;10.058;2022-12-08T15:52:51;0.93;95.85
67279;DHT22;54193;53.746;10.058;2022-12-08T15:55:37;0.93;95.79
67279;DHT22;54193;53.746;10.058;2022-12-08T15:58:24;0.94;95.85
67279;DHT22;54193;53.746;10.058;2022-12-08T16:01:10;0.98;95.84
67279;DHT22;54193;53.746;10.058;2022-12-08T16:03:55;0.96;95.85
67279;DHT22;54193;53.746;10.058;2022-12-08T16:06:43;0.96;95.88
67279;DHT22;54193;53.746;10.058;2022-12-08T16:09:35;1.05;95.87
67279;DHT22;54193;53.746;10.058;2022-12-08T16:12:26;1.13;95.90
67279;DHT22;54193;53.746;10.058;2022-12-08T16:15:31;1.05;95.92
67279;DHT22;54193;53.746;10.058;2022-12-08T16:18:23;0.91;96.01
67279;DHT22;54193;53.746;10.058;2022-12-08T16:21:10;0.83;96.14
67279;DHT22;54193;53.746;10.058;2022-12-08T16:23:56;0.81;96.29
67279;DHT22;54193;53.746;10.058;2022-12-08T16:26:42;0.76;96.19
67279;DHT22;54193;53.746;10.058;2022-12-08T16:29:27;0.80;96.08
67279;DHT22;54193;53.746;10.058;2022-12-08T16:32:13;1.00;96.11
67279;DHT22;54193;53.746;10.058;2022-12-08T16:34:59;1.09;96.05
67279;DHT22;54193;53.746;10.058;2022-12-08T16:37:45;1.09;96.04
67279;DHT22;54193;53.746;10.058;2022-12-08T16:40:30;1.11;96.00
67279;DHT22;54193;53.746;10.058;2022-12-08T16:43:16;1.09;96.04
67279;DHT22;54193;53.746;10.058;2022-12-08T16:46:02;1.17;96.06
67279;DHT22;54193;53.746;10.058;2022-12-08T16:48:48;1.03;95.55
67279;DHT22;54193;53.746;10.058;2022-12-08T16:51:34;0.93;95.70
67279;DHT22;54193;53.746;10.058;2022-12-08T16:54:20;0.91;95.87
67279;DHT22;54193;53.746;10.058;2022-12-08T16:57:05;0.93;96.00
67279;DHT22;54193;53.746;10.058;2022-12-08T16:59:51;1.04;95.84
67279;DHT22;54193;53.746;10.058;2022-12-08T17:02:36;0.98;95.73
67279;DHT22;54193;53.746;10.058;2022-12-08T17:05:23;0.97;95.83
67279;DHT22;54193;53.746;10.058;2022-12-08T17:08:09;1.01;95.66
67279;DHT22;54193;53.746;10.058;2022-12-08T17:10:54;0.96;95.52
67279;DHT22;54193;53.746;10.058;2022-12-08T17:13:51;0.84;95.41
67279;DHT22;54193;53.746;10.058;2022-12-08T17:16:38;0.81;95.40
67279;DHT22;54193;53.746;10.058;2022-12-08T17:19:24;0.77;95.48
67279;DHT22;54193;53.746;10.058;2022-12-08T17:22:09;0.68;95.41
67279;DHT22;54193;53.746;10.058;2022-12-08T17:24:55;0.66;95.39
67279;DHT22;54193;53.746;10.058;2022-12-08T17:27:41;0.56;95.35
67279;DHT22;54193;53.746;10.058;2022-12-08T17:30:27;0.45;95.25
67279;DHT22;54193;53.746;10.058;2022-12-08T17:33:13;0.35;95.14
67279;DHT22;54193;53.746;10.058;2022-12-08T17:35:58;0.32;95.21
67279;DHT22;54193;53.746;10.058;2022-12-08T17:38:44;0.28;95.82
67279;DHT22;54193;53.746;10.058;2022-12-08T17:41:31;0.28;96.04
67279;DHT22;54193;53.746;10.058;2022-12-08T17:44:17;0.33;95.88
67279;DHT22;54193;53.746;10.058;2022-12-08T17:47:04;0.44;95.59
67279;DHT22;54193;53.746;10.058;2022-12-08T17:49:49;0.39;95.53
67279;DHT22;54193;53.746;10.058;2022-12-08T17:52:35;0.38;95.47
67279;DHT22;54193;53.746;10.058;2022-12-08T17:55:21;0.42;95.63
67279;DHT22;54193;53.746;10.058;2022-12-08T17:58:07;0.46;95.74
67279;DHT22;54193;53.746;10.058;2022-12-08T18:00:52;0.46;95.73
67279;DHT22;54193;53.746;10.058;2022-12-08T18:03:38;0.42;95.77
67279;DHT22;54193;53.746;10.058;2022-12-08T18:06:24;0.37;95.70
67279;DHT22;54193;53.746;10.058;2022-12-08T18:09:10;0.35;95.53
67279;DHT22;54193;53.746;10.058;2022-12-08T18:11:55;0.32;95.53
67279;DHT22;54193;53.746;10.058;2022-12-08T18:14:41;0.25;95.51
67279;DHT22;54193;53.746;10.058;2022-12-08T18:17:27;0.04;95.31
67279;DHT22;54193;53.746;10.058;2022-12-08T18:20:13;-0.20;95.13
67279;DHT22;54193;53.746;10.058;2022-12-08T18:22:58;-0.38;95.28
67279;DHT22;54193;53.746;10.058;2022-12-08T18:25:44;-0.47;95.57
67279;DHT22;54193;53.746;10.058;2022-12-08T18:28:30;-0.60;95.65
67279;DHT22;54193;53.746;10.058;2022-12-08T18:31:18;-0.57;95.60
67279;DHT22;54193;53.746;10.058;2022-12-08T18:34:04;-0.54;95.66
67279;DHT22;54193;53.746;10.058;2022-12-08T18:36:50;-0.47;95.88
67279;DHT22;54193;53.746;10.058;2022-12-08T18:39:35;-0.28;96.18
67279;DHT22;54193;53.746;10.058;2022-12-08T18:42:22;-0.06;96.40
67279;DHT22;54193;53.746;10.058;2022-12-08T18:45:07;0.11;96.45
67279;DHT22;54193;53.746;10.058;2022-12-08T18:47:53;0.21;96.39
67279;DHT22;54193;53.746;10.058;2022-12-08T18:50:40;0.26;96.41
67279;DHT22;54193;53.746;10.058;2022-12-08T18:53:27;0.14;96.39
67279;DHT22;54193;53.746;10.058;2022-12-08T18:56:25;0.14;96.44
67279;DHT22;54193;53.746;10.058;2022-12-08T18:59:11;0.10;96.61
67279;DHT22;54193;53.746;10.058;2022-12-08T19:01:57;0.08;96.79
67279;DHT22;54193;53.746;10.058;2022-12-08T19:04:43;0.15;96.73
67279;DHT22;54193;53.746;10.058;2022-12-08T19:07:29;0.25;96.58